Time;durP1;ratioP1;P1;durP2;ratioP2;P2;SDS_P1;SDS_P2;PMS_P1;PMS_P2;Temp;Humidity;BMP_temperature;BMP_pressure;BME280_temperature;BME280_humidity;BME280_pressure;Samples;Min_cycle;Max_cycle;Signal;HPM_P1;HPM_P2
2022/07/24 00:01:36;;;;;;;2.78;1.60;;;15.70;99.90;;;;;;4997069;28;20137;-76
2022/07/24 00:04:05;;;;;;;2.80;1.75;;;15.70;99.90;;;;;;4997624;28;20069;-76
2022/07/24 00:06:32;;;;;;;3.75;2.10;;;15.70;99.90;;;;;;5013491;28;20379;-76
2022/07/24 00:08:57;;;;;;;2.20;1.48;;;15.70;99.90;;;;;;4996861;28;20045;-76
2022/07/24 00:11:23;;;;;;;2.45;1.80;;;15.70;99.90;;;;;;5013424;28;20042;-76
2022/07/24 00:13:49;;;;;;;2.38;1.60;;;15.60;99.90;;;;;;5013527;28;20136;-76
2022/07/24 00:16:15;;;;;;;2.50;1.42;;;15.80;99.90;;;;;;5013141;28;20041;-76
2022/07/24 00:18:40;;;;;;;3.70;1.88;;;15.70;99.90;;;;;;5013030;28;20061;-76
2022/07/24 00:21:06;;;;;;;3.38;1.83;;;15.60;99.90;;;;;;5014267;28;20489;-76
2022/07/24 00:23:32;;;;;;;2.75;1.77;;;15.60;99.90;;;;;;4996692;28;20417;-76
2022/07/24 00:26:01;;;;;;;2.22;1.58;;;15.60;99.90;;;;;;5013305;28;20038;-76
2022/07/24 00:28:27;;;;;;;2.90;1.85;;;15.60;99.90;;;;;;5013054;28;20038;-76
2022/07/24 00:30:52;;;;;;;2.97;1.88;;;15.60;99.90;;;;;;5012946;28;20490;-76
2022/07/24 00:33:18;;;;;;;3.83;1.92;;;15.50;99.90;;;;;;4996520;28;20046;-76
2022/07/24 00:35:44;;;;;;;4.07;1.98;;;15.50;99.90;;;;;;4996810;28;20081;-76
2022/07/24 00:38:09;;;;;;;2.35;1.45;;;15.50;99.90;;;;;;5013008;28;20042;-76
2022/07/24 00:40:35;;;;;;;2.58;1.90;;;15.50;99.90;;;;;;4996454;28;20045;-76
2022/07/24 00:43:02;;;;;;;4.13;1.75;;;15.50;99.90;;;;;;5012735;28;20034;-76
2022/07/24 00:45:28;;;;;;;3.35;2.20;;;15.50;99.90;;;;;;4996393;28;20077;-76
2022/07/24 00:47:54;;;;;;;4.43;2.05;;;15.40;99.90;;;;;;5012963;28;20081;-75
2022/07/24 00:50:20;;;;;;;9.18;2.17;;;15.40;99.90;;;;;;5012560;28;20038;-75
2022/07/24 00:52:46;;;;;;;4.65;2.33;;;15.40;99.90;;;;;;5012672;28;20073;-76
2022/07/24 00:55:12;;;;;;;4.45;2.22;;;15.40;99.90;;;;;;4996431;28;20049;-76
2022/07/24 00:57:38;;;;;;;2.65;1.92;;;15.40;99.90;;;;;;5012383;28;20068;-76
2022/07/24 01:00:06;;;;;;;3.30;2.10;;;15.40;99.90;;;;;;4996208;28;20038;-76
2022/07/24 01:02:33;;;;;;;2.65;1.50;;;15.40;99.90;;;;;;5012259;28;20417;-76
2022/07/24 01:04:59;;;;;;;2.92;2.13;;;15.40;99.90;;;;;;4995863;28;20046;-76
2022/07/24 01:07:24;;;;;;;2.72;1.90;;;15.40;99.90;;;;;;5012247;28;20145;-76
2022/07/24 01:09:51;;;;;;;3.38;2.05;;;15.40;99.90;;;;;;4995911;28;20401;-76
2022/07/24 01:12:17;;;;;;;3.90;2.53;;;15.40;99.90;;;;;;5012293;28;20081;-76
2022/07/24 01:14:44;;;;;;;3.88;2.05;;;15.40;99.90;;;;;;4995859;28;20045;-76
2022/07/24 01:17:09;;;;;;;2.88;1.77;;;14.90;99.90;;;;;;5012003;28;20058;-76
2022/07/24 01:19:35;;;;;;;3.03;1.83;;;15.50;99.90;;;;;;5012190;28;20053;-76
2022/07/24 01:22:01;;;;;;;3.55;2.03;;;15.40;99.90;;;;;;5011977;28;20038;-76
2022/07/24 01:24:27;;;;;;;2.38;1.65;;;15.40;99.90;;;;;;4995793;28;20076;-76
2022/07/24 01:26:53;;;;;;;5.15;2.33;;;15.40;99.90;;;;;;5012323;28;20045;-76
2022/07/24 01:29:19;;;;;;;2.92;2.30;;;15.40;99.90;;;;;;4995680;28;20038;-76
2022/07/24 01:31:45;;;;;;;3.28;1.85;;;15.70;99.90;;;;;;5012203;28;20033;-76
2022/07/24 01:34:10;;;;;;;3.08;1.85;;;15.40;99.90;;;;;;5012178;28;20034;-76
2022/07/24 01:36:36;;;;;;;5.93;2.30;;;15.40;99.90;;;;;;5011886;28;20048;-76
2022/07/24 01:39:02;;;;;;;3.53;2.13;;;15.40;99.90;;;;;;4995625;28;20140;-76
2022/07/24 01:41:28;;;;;;;4.93;2.20;;;15.40;99.90;;;;;;5012197;28;20073;-76
2022/07/24 01:43:57;;;;;;;2.35;1.75;;;15.30;99.90;;;;;;5011730;28;20084;-76
2022/07/24 01:46:22;;;;;;;2.85;2.10;;;15.40;99.90;;;;;;4995475;28;20122;-76
2022/07/24 01:48:48;;;;;;;3.40;2.10;;;15.30;99.90;;;;;;4995770;28;20084;-76
2022/07/24 01:51:14;;;;;;;1.88;1.50;;;15.30;99.90;;;;;;5011988;28;20041;-76
2022/07/24 01:53:40;;;;;;;2.63;1.98;;;15.30;99.90;;;;;;5011757;28;20485;-76
2022/07/24 01:56:05;;;;;;;2.70;1.98;;;15.30;99.90;;;;;;5011728;28;20049;-76
2022/07/24 01:58:31;;;;;;;2.80;1.92;;;15.30;99.90;;;;;;5011772;28;20536;-76
2022/07/24 02:00:57;;;;;;;3.15;2.15;;;15.30;99.90;;;;;;4995373;28;20041;-76
2022/07/24 02:03:23;;;;;;;2.60;1.80;;;15.30;99.90;;;;;;4995452;28;20048;-76
2022/07/24 02:05:49;;;;;;;5.28;2.42;;;15.30;99.90;;;;;;4995592;28;20038;-76
2022/07/24 02:08:14;;;;;;;3.03;1.90;;;15.30;99.90;;;;;;4995176;28;20044;-76
2022/07/24 02:10:40;;;;;;;2.85;2.03;;;15.30;99.90;;;;;;5011925;28;20493;-76
2022/07/24 02:13:06;;;;;;;3.00;2.17;;;15.50;99.90;;;;;;4995225;28;20033;-75
2022/07/24 02:15:32;;;;;;;3.17;2.00;;;15.30;99.90;;;;;;5011555;28;20056;-76
2022/07/24 02:18:00;;;;;;;2.83;1.98;;;15.30;99.90;;;;;;5011551;28;20526;-76
2022/07/24 02:20:27;;;;;;;3.55;2.08;;;15.30;99.90;;;;;;5011483;28;20045;-75
2022/07/24 02:22:53;;;;;;;4.43;2.35;;;15.20;99.90;;;;;;5013731;28;20056;-76
2022/07/24 02:25:19;;;;;;;3.03;1.90;;;15.20;99.90;;;;;;4999286;28;20034;-76
2022/07/24 02:27:45;;;;;;;3.92;2.15;;;15.20;99.90;;;;;;5001076;28;20053;-76
2022/07/24 02:30:14;;;;;;;2.50;1.60;;;15.20;99.90;;;;;;4998881;28;20045;-76
2022/07/24 02:32:40;;;;;;;2.85;1.73;;;15.20;99.90;;;;;;4999139;28;20500;-76
2022/07/24 02:35:06;;;;;;;2.85;1.75;;;15.20;99.90;;;;;;5015088;28;20042;-76
2022/07/24 02:37:35;;;;;;;2.72;2.08;;;15.20;99.90;;;;;;4998946;28;20095;-76
2022/07/24 02:40:00;;;;;;;3.42;2.10;;;15.20;99.90;;;;;;4998974;28;20550;-76
2022/07/24 02:42:26;;;;;;;3.53;2.13;;;15.20;99.90;;;;;;5014951;28;20049;-76
2022/07/24 02:44:52;;;;;;;3.35;2.00;;;15.20;99.90;;;;;;4998897;28;20054;-76
2022/07/24 02:47:17;;;;;;;3.38;2.10;;;15.20;99.90;;;;;;4998887;28;20053;-76
2022/07/24 02:49:49;;;;;;;3.85;2.22;;;15.20;99.90;;;;;;5014816;28;20038;-76
2022/07/24 02:52:15;;;;;;;2.60;1.95;;;15.20;99.90;;;;;;5014780;28;20034;-76
2022/07/24 02:54:41;;;;;;;3.83;1.70;;;15.10;99.90;;;;;;5015016;28;20103;-76
2022/07/24 02:57:06;;;;;;;4.28;2.35;;;15.20;99.90;;;;;;4998680;28;20089;-76
2022/07/24 02:59:32;;;;;;;3.35;2.05;;;15.20;99.90;;;;;;4999545;28;20065;-76
2022/07/24 03:01:58;;;;;;;3.17;1.70;;;15.20;99.90;;;;;;5014616;28;20042;-76
2022/07/24 03:04:23;;;;;;;3.92;1.85;;;15.20;99.90;;;;;;4998193;28;20489;-76
2022/07/24 03:06:49;;;;;;;4.70;2.10;;;15.20;99.90;;;;;;4998491;28;20038;-76
2022/07/24 03:09:15;;;;;;;5.43;2.28;;;15.20;99.90;;;;;;4998398;28;20053;-76
2022/07/24 03:11:41;;;;;;;2.58;1.70;;;15.20;99.90;;;;;;5014486;28;20121;-76
2022/07/24 03:14:06;;;;;;;3.17;2.08;;;15.20;99.90;;;;;;4998334;28;20042;-76
2022/07/24 03:16:32;;;;;;;4.40;1.80;;;15.20;99.90;;;;;;4998061;28;20057;-76
2022/07/24 03:18:58;;;;;;;4.70;2.45;;;15.30;99.90;;;;;;5014152;28;20065;-76
2022/07/24 03:21:23;;;;;;;2.58;1.65;;;15.30;99.90;;;;;;4997921;28;20033;-76
2022/07/24 03:23:52;;;;;;;4.55;2.40;;;15.20;99.90;;;;;;5014138;28;20531;-76
2022/07/24 03:26:18;;;;;;;3.15;1.90;;;15.30;99.90;;;;;;5014194;28;20053;-76
2022/07/24 03:28:43;;;;;;;5.90;2.13;;;15.30;99.90;;;;;;5014593;28;20038;-76
2022/07/24 03:31:09;;;;;;;2.92;2.22;;;15.30;99.90;;;;;;4997756;28;20064;-76
2022/07/24 03:33:38;;;;;;;3.65;2.10;;;15.30;99.90;;;;;;5012907;28;20077;-76
2022/07/24 03:36:03;;;;;;;2.60;1.90;;;15.30;99.90;;;;;;5014009;28;20129;-76
2022/07/24 03:38:29;;;;;;;3.80;2.30;;;15.30;99.90;;;;;;5013979;28;20471;-76
2022/07/24 03:40:55;;;;;;;2.92;2.03;;;15.30;99.90;;;;;;4997637;28;20120;-76
2022/07/24 03:43:20;;;;;;;3.08;2.17;;;15.30;99.90;;;;;;5013742;28;20046;-76
2022/07/24 03:45:46;;;;;;;4.60;2.35;;;15.30;99.90;;;;;;5013845;28;20421;-76
2022/07/24 03:48:12;;;;;;;2.92;1.75;;;15.50;99.90;;;;;;4997471;28;20065;-76
2022/07/24 03:50:37;;;;;;;3.55;2.20;;;15.40;99.90;;;;;;5013656;28;20053;-76
2022/07/24 03:53:03;;;;;;;3.67;2.35;;;15.40;99.90;;;;;;5013667;28;20049;-76
2022/07/24 03:55:29;;;;;;;3.75;2.10;;;15.50;99.90;;;;;;5013592;28;20052;-76
2022/07/24 03:57:54;;;;;;;2.92;2.13;;;15.40;99.90;;;;;;5013767;28;20057;-76
2022/07/24 04:00:20;;;;;;;4.57;2.38;;;15.50;99.90;;;;;;4997271;28;20046;-75
2022/07/24 04:02:46;;;;;;;2.70;1.90;;;15.80;99.90;;;;;;4997311;28;20099;-75
2022/07/24 04:05:13;;;;;;;3.22;2.05;;;15.50;99.90;;;;;;4997113;28;20042;-76
2022/07/24 04:07:39;;;;;;;3.88;2.08;;;15.60;99.90;;;;;;5013467;28;20038;-76
2022/07/24 04:10:06;;;;;;;4.05;2.00;;;15.60;99.90;;;;;;4997279;28;20393;-76
2022/07/24 04:12:32;;;;;;;2.58;1.92;;;15.60;99.90;;;;;;5013308;28;20050;-76
2022/07/24 04:14:58;;;;;;;5.70;3.10;;;15.60;99.90;;;;;;5013322;28;20069;-76
2022/07/24 04:17:23;;;;;;;2.92;2.28;;;15.60;99.90;;;;;;4997041;28;20085;-76
2022/07/24 04:19:49;;;;;;;4.13;1.95;;;15.70;99.90;;;;;;4997099;28;20042;-76
2022/07/24 04:22:15;;;;;;;3.40;2.55;;;15.70;99.90;;;;;;5013038;28;20042;-76
2022/07/24 04:24:41;;;;;;;3.20;2.22;;;15.70;99.90;;;;;;4996758;28;20092;-76
2022/07/24 04:27:06;;;;;;;2.60;1.92;;;15.70;99.90;;;;;;5013015;28;20512;-76
2022/07/24 04:29:32;;;;;;;2.55;1.98;;;15.70;99.90;;;;;;4996999;28;20045;-76
2022/07/24 04:31:58;;;;;;;3.05;2.05;;;15.80;99.90;;;;;;5012940;28;20125;-76
2022/07/24 04:34:27;;;;;;;3.50;2.35;;;16.00;99.90;;;;;;5013459;28;20037;-75
2022/07/24 04:36:53;;;;;;;3.60;1.98;;;15.80;99.90;;;;;;5012865;28;20121;-76
2022/07/24 04:39:18;;;;;;;2.67;2.00;;;15.80;99.90;;;;;;4996539;28;20129;-76
2022/07/24 04:41:44;;;;;;;3.45;2.28;;;15.80;99.90;;;;;;5012679;28;20042;-76
2022/07/24 04:44:10;;;;;;;3.40;2.13;;;15.80;99.90;;;;;;5012728;28;20077;-76
2022/07/24 04:46:35;;;;;;;3.17;2.15;;;15.80;99.90;;;;;;4996087;28;20074;-76
2022/07/24 04:49:01;;;;;;;3.45;2.25;;;15.80;99.90;;;;;;4996290;28;20285;-76
2022/07/24 04:51:27;;;;;;;3.15;2.28;;;15.80;99.90;;;;;;5012903;28;20192;-76
2022/07/24 04:53:52;;;;;;;3.78;2.15;;;15.90;99.90;;;;;;4996192;28;20045;-76
2022/07/24 04:56:19;;;;;;;5.82;2.05;;;15.90;99.90;;;;;;5012807;28;20133;-76
2022/07/24 04:58:46;;;;;;;7.32;2.20;;;15.90;99.90;;;;;;4996458;28;20041;-76
2022/07/24 05:01:12;;;;;;;3.90;2.30;;;15.90;99.90;;;;;;5012466;28;20100;-76
2022/07/24 05:03:37;;;;;;;6.78;2.42;;;16.00;99.90;;;;;;5012422;28;20042;-76
2022/07/24 05:06:03;;;;;;;5.75;2.15;;;16.00;99.90;;;;;;4996630;28;20042;-75
2022/07/24 05:08:29;;;;;;;2.83;2.03;;;16.10;99.90;;;;;;5012299;28;20453;-76
2022/07/24 05:10:55;;;;;;;3.58;2.15;;;16.10;99.90;;;;;;5012565;28;20034;-75
2022/07/24 05:13:20;;;;;;;4.07;2.40;;;16.20;99.90;;;;;;4996143;28;20095;-76
2022/07/24 05:15:46;;;;;;;4.95;2.00;;;16.20;99.90;;;;;;5012221;28;20133;-76
2022/07/24 05:18:12;;;;;;;2.55;1.75;;;16.30;99.90;;;;;;5012037;28;20089;-76
2022/07/24 05:20:38;;;;;;;5.22;2.30;;;16.30;99.90;;;;;;5012188;28;20046;-76
2022/07/24 05:23:03;;;;;;;3.42;2.03;;;16.40;99.90;;;;;;4995680;28;20046;-76
2022/07/24 05:25:29;;;;;;;5.72;2.50;;;16.40;99.90;;;;;;4995733;28;20422;-76
2022/07/24 05:27:55;;;;;;;4.28;2.30;;;16.50;99.90;;;;;;5012048;28;20048;-76
2022/07/24 05:30:20;;;;;;;7.32;2.28;;;16.60;99.90;;;;;;5012271;28;20042;-76
2022/07/24 05:32:46;;;;;;;2.92;1.80;;;16.60;99.90;;;;;;5012033;28;20103;-76
2022/07/24 05:35:12;;;;;;;3.70;2.40;;;16.70;99.90;;;;;;5012252;28;20065;-75
2022/07/24 05:37:37;;;;;;;4.68;2.50;;;16.80;99.90;;;;;;5011950;28;20037;-76
2022/07/24 05:40:04;;;;;;;3.25;1.92;;;16.90;99.90;;;;;;4995842;28;20184;-76
2022/07/24 05:42:32;;;;;;;3.78;2.30;;;17.10;99.90;;;;;;5011955;28;20045;-76
2022/07/24 05:44:58;;;;;;;5.00;2.47;;;17.20;99.90;;;;;;5011878;28;20038;-75
2022/07/24 05:47:24;;;;;;;3.42;2.20;;;17.40;99.90;;;;;;5011823;28;20041;-75
2022/07/24 05:49:49;;;;;;;4.10;2.80;;;17.60;99.90;;;;;;5012136;28;20143;-76
2022/07/24 05:52:15;;;;;;;4.85;2.53;;;17.60;99.90;;;;;;4995442;28;20073;-76
2022/07/24 05:54:41;;;;;;;3.03;2.22;;;17.80;99.90;;;;;;5012010;28;20049;-76
2022/07/24 05:57:06;;;;;;;4.43;2.80;;;18.00;99.90;;;;;;5013033;28;20053;-76
2022/07/24 05:59:32;;;;;;;4.22;2.58;;;17.80;99.90;;;;;;5015861;28;20052;-76
2022/07/24 06:01:59;;;;;;;4.05;2.50;;;17.90;99.90;;;;;;4999411;28;20042;-76
2022/07/24 06:04:25;;;;;;;5.05;2.88;;;18.00;99.90;;;;;;5015998;28;20064;-75
2022/07/24 06:06:51;;;;;;;5.35;2.83;;;18.10;99.90;;;;;;5015705;28;20034;-75
2022/07/24 06:09:17;;;;;;;6.18;2.85;;;18.20;99.90;;;;;;5015617;28;20485;-76
2022/07/24 06:11:42;;;;;;;5.70;3.08;;;18.40;99.90;;;;;;5015828;28;20508;-75
2022/07/24 06:14:08;;;;;;;7.35;3.00;;;18.50;99.90;;;;;;4999461;28;20081;-76
2022/07/24 06:16:33;;;;;;;5.22;2.72;;;18.60;99.90;;;;;;5015447;28;20046;-76
2022/07/24 06:18:59;;;;;;;4.00;2.75;;;18.60;99.90;;;;;;5015311;28;20541;-76
2022/07/24 06:21:25;;;;;;;4.07;2.92;;;18.70;99.90;;;;;;4999060;28;20042;-76
2022/07/24 06:23:50;;;;;;;5.50;3.13;;;18.70;99.90;;;;;;4998949;28;20046;-76
2022/07/24 06:26:16;;;;;;;6.60;3.00;;;18.80;99.90;;;;;;5015560;28;20048;-76
2022/07/24 06:28:42;;;;;;;6.15;3.38;;;18.90;99.90;;;;;;4999252;28;20068;-76
2022/07/24 06:31:07;;;;;;;8.32;3.25;;;18.90;99.90;;;;;;5015522;28;20129;-76
2022/07/24 06:33:33;;;;;;;6.30;3.97;;;19.00;99.90;;;;;;5015445;28;20053;-76
2022/07/24 06:36:01;;;;;;;5.03;3.05;;;19.10;99.90;;;;;;5015567;28;20045;-76
2022/07/24 06:38:27;;;;;;;5.43;3.70;;;19.10;99.90;;;;;;4998794;28;20045;-76
2022/07/24 06:40:53;;;;;;;6.97;4.88;;;19.20;99.90;;;;;;5015025;28;20410;-76
2022/07/24 06:43:19;;;;;;;10.38;4.35;;;19.40;99.90;;;;;;5014836;28;20078;-76
2022/07/24 06:45:44;;;;;;;5.63;3.65;;;19.50;99.90;;;;;;5014823;28;20480;-76
2022/07/24 06:48:10;;;;;;;5.50;3.55;;;19.70;99.90;;;;;;5014884;28;20183;-76
2022/07/24 06:50:39;;;;;;;6.15;3.70;;;19.80;99.90;;;;;;4998537;28;20057;-76
2022/07/24 06:53:05;;;;;;;5.30;3.88;;;19.80;99.90;;;;;;4999028;28;20050;-76
2022/07/24 06:55:31;;;;;;;8.55;4.00;;;19.80;99.90;;;;;;5014962;28;20038;-76
2022/07/24 06:57:57;;;;;;;9.13;4.22;;;19.70;99.90;;;;;;5015222;28;20042;-76
2022/07/24 07:00:22;;;;;;;8.27;4.35;;;19.70;99.90;;;;;;5014921;28;20456;-76
2022/07/24 07:02:50;;;;;;;7.38;4.13;;;19.70;99.90;;;;;;4998413;28;20049;-75
2022/07/24 07:05:15;;;;;;;6.95;4.43;;;19.70;99.90;;;;;;4998233;28;20125;-76
2022/07/24 07:07:43;;;;;;;6.38;3.70;;;19.80;99.90;;;;;;5015158;28;20146;-76
2022/07/24 07:10:09;;;;;;;6.10;3.92;;;20.00;99.90;;;;;;5014499;28;20045;-76
2022/07/24 07:12:36;;;;;;;5.85;4.07;;;20.20;99.90;;;;;;5014713;28;20557;-76
2022/07/24 07:15:02;;;;;;;8.18;4.60;;;20.30;99.90;;;;;;4998423;28;20046;-76
2022/07/24 07:17:29;;;;;;;7.25;4.57;;;20.50;99.90;;;;;;4999358;28;20050;-76
2022/07/24 07:19:54;;;;;;;7.82;4.25;;;20.70;99.90;;;;;;5014480;28;20049;-75
2022/07/24 07:22:20;;;;;;;8.73;4.72;;;20.80;99.90;;;;;;4997946;28;20045;-76
2022/07/24 07:24:46;;;;;;;7.72;4.57;;;20.90;99.90;;;;;;5014015;28;20046;-76
2022/07/24 07:27:11;;;;;;;11.07;5.25;;;21.10;99.90;;;;;;4997965;28;20044;-76
2022/07/24 07:29:37;;;;;;;7.57;4.20;;;21.10;99.90;;;;;;4997648;28;20038;-76
2022/07/24 07:32:03;;;;;;;5.70;4.18;;;21.30;99.90;;;;;;5014039;28;20041;-76
2022/07/24 07:34:29;;;;;;;6.43;4.10;;;21.40;99.90;;;;;;4997578;28;20042;-76
2022/07/24 07:36:55;;;;;;;8.98;5.32;;;21.50;99.90;;;;;;5013857;28;20080;-76
2022/07/24 07:39:23;;;;;;;11.20;5.20;;;21.60;99.90;;;;;;5014248;28;20375;-76
2022/07/24 07:41:49;;;;;;;13.02;4.82;;;21.80;99.90;;;;;;4997754;28;20046;-76
2022/07/24 07:44:15;;;;;;;8.27;4.93;;;21.90;99.90;;;;;;5013533;28;20046;-75
2022/07/24 07:46:40;;;;;;;8.60;4.50;;;22.00;99.90;;;;;;5013646;28;20449;-76
2022/07/24 07:49:06;;;;;;;8.30;5.15;;;22.30;99.90;;;;;;5013907;28;20048;-76
2022/07/24 07:51:31;;;;;;;7.65;4.85;;;22.50;99.90;;;;;;5013588;28;20176;-76
2022/07/24 07:53:57;;;;;;;5.85;3.75;;;22.70;99.90;;;;;;4997288;28;20045;-76
2022/07/24 07:56:23;;;;;;;7.65;5.35;;;22.70;99.90;;;;;;5013395;28;20042;-76
2022/07/24 07:58:48;;;;;;;10.20;5.00;;;22.80;99.90;;;;;;4997410;28;20120;-77
2022/07/24 08:01:14;;;;;;;9.23;5.25;;;22.70;99.90;;;;;;4997073;28;20065;-76
2022/07/24 08:03:40;;;;;;;7.80;4.60;;;22.70;99.90;;;;;;4997114;28;20038;-76
2022/07/24 08:06:06;;;;;;;7.57;4.85;;;22.70;99.90;;;;;;4997028;28;20034;-76
2022/07/24 08:08:31;;;;;;;6.95;4.32;;;22.60;99.90;;;;;;5013559;28;20088;-76
2022/07/24 08:10:57;;;;;;;9.00;5.35;;;22.40;99.90;;;;;;5013168;28;20069;-76
2022/07/24 08:13:23;;;;;;;7.97;4.88;;;22.40;99.90;;;;;;5013018;28;20077;-76
2022/07/24 08:15:48;;;;;;;7.32;4.30;;;22.60;99.90;;;;;;5013136;28;20097;-76
2022/07/24 08:18:14;;;;;;;7.97;4.53;;;22.60;99.90;;;;;;5012884;28;20515;-76
2022/07/24 08:20:40;;;;;;;8.85;4.30;;;22.80;99.90;;;;;;4996140;28;20042;-76
2022/07/24 08:23:05;;;;;;;8.45;3.83;;;23.00;99.90;;;;;;5012926;28;20081;-76
2022/07/24 08:25:31;;;;;;;5.97;4.13;;;23.10;99.90;;;;;;4996587;28;20045;-76
2022/07/24 08:27:57;;;;;;;4.97;3.17;;;23.20;99.90;;;;;;5013206;28;20042;-76
2022/07/24 08:30:25;;;;;;;6.05;2.97;;;23.30;99.90;;;;;;4996509;28;20053;-76
2022/07/24 08:32:50;;;;;;;4.95;3.15;;;23.50;99.90;;;;;;5012834;28;20081;-76
2022/07/24 08:35:16;;;;;;;4.22;2.78;;;23.70;99.90;;;;;;5012656;28;20084;-76
2022/07/24 08:37:42;;;;;;;4.47;2.63;;;23.80;99.90;;;;;;4996385;28;20053;-76
2022/07/24 08:40:10;;;;;;;3.47;1.80;;;24.00;99.90;;;;;;5000298;28;20080;-76
2022/07/24 08:42:36;;;;;;;3.03;2.10;;;24.10;99.90;;;;;;5012560;28;20045;-76
2022/07/24 08:45:04;;;;;;;3.33;2.10;;;24.20;99.90;;;;;;4996202;28;20042;-76
2022/07/24 08:47:32;;;;;;;2.58;1.70;;;24.40;99.90;;;;;;5012595;28;20061;-76
2022/07/24 08:49:59;;;;;;;4.05;1.83;;;24.30;99.90;;;;;;4996477;28;20501;-76
2022/07/24 08:52:25;;;;;;;3.60;1.95;;;24.10;99.90;;;;;;4996179;28;20042;-76
2022/07/24 08:54:52;;;;;;;3.67;1.92;;;24.00;99.90;;;;;;4996160;28;20045;-76
2022/07/24 08:57:18;;;;;;;3.40;1.88;;;24.00;99.90;;;;;;5012547;28;20041;-77
2022/07/24 08:59:44;;;;;;;1.85;1.35;;;24.00;99.90;;;;;;4996117;28;20056;-76
2022/07/24 09:02:10;;;;;;;4.57;1.95;;;24.00;99.90;;;;;;5013371;28;20132;-77
2022/07/24 09:04:35;;;;;;;2.42;1.45;;;24.00;99.90;;;;;;5012287;28;20088;-76
2022/07/24 09:07:04;;;;;;;1.92;1.30;;;24.00;99.90;;;;;;5012218;28;20445;-76
2022/07/24 09:09:30;;;;;;;3.72;1.60;;;23.90;99.90;;;;;;5012099;28;20113;-76
2022/07/24 09:12:04;;;;;;;3.03;1.48;;;23.80;99.90;;;;;;4995797;28;20066;-76
2022/07/24 09:14:34;;;;;;;2.28;1.27;;;23.80;99.90;;;;;;5012471;28;20053;-76
2022/07/24 09:17:07;;;;;;;;;;;23.80;99.90;;;;;;5014807;28;20509;-76
2022/07/24 09:20:12;;;;;;;1.88;1.20;;;24.00;99.90;;;;;;4998807;28;19996;-76
2022/07/24 09:22:40;;;;;;;2.33;1.27;;;24.10;99.90;;;;;;4952679;29;20072;-76
2022/07/24 09:25:18;;;;;;;2.85;1.40;;;24.20;99.90;;;;;;4920873;29;20043;-76
2022/07/24 09:27:48;;;;;;;2.50;1.50;;;24.20;99.90;;;;;;4965422;28;20060;-76
2022/07/24 09:30:37;;;;;;;2.63;1.38;;;24.40;99.90;;;;;;5015041;28;20033;-77
2022/07/24 09:33:12;;;;;;;1.90;1.27;;;24.50;99.90;;;;;;4998136;28;20558;-76
2022/07/24 09:35:44;;;;;;;2.33;1.38;;;24.70;99.90;;;;;;5015186;28;20041;-76
2022/07/24 09:38:13;;;;;;;2.45;1.58;;;25.10;99.90;;;;;;4998642;28;20124;-76
2022/07/24 09:40:44;;;;;;;2.47;1.27;;;25.20;99.90;;;;;;4998533;28;20087;-76
2022/07/24 09:43:27;;;;;;;1.98;1.20;;;25.40;99.90;;;;;;5015079;28;20176;-76
2022/07/24 09:45:59;;;;;;;1.90;1.08;;;25.20;99.90;;;;;;5014941;28;20049;-76
2022/07/24 09:48:34;;;;;;;2.33;1.38;;;25.00;99.90;;;;;;4998331;28;20037;-76
2022/07/24 09:51:05;;;;;;;1.60;1.08;;;25.00;99.90;;;;;;5014776;28;20120;-76
2022/07/24 09:53:33;;;;;;;3.13;1.10;;;25.20;99.90;;;;;;5014774;28;20179;-76
2022/07/24 09:56:06;;;;;;;2.17;1.20;;;25.20;99.90;;;;;;4982234;28;20052;-76
2022/07/24 09:58:34;;;;;;;1.60;1.02;;;25.30;99.90;;;;;;4998574;28;20550;-76
2022/07/24 10:01:00;;;;;;;2.40;1.42;;;25.00;99.90;;;;;;4998304;28;20124;-77
2022/07/24 10:03:29;;;;;;;2.65;1.00;;;25.40;99.90;;;;;;4998258;28;20049;-76
2022/07/24 10:05:58;;;;;;;1.63;0.90;;;25.40;99.90;;;;;;5014566;28;20048;-76
2022/07/24 10:08:25;;;;;;;1.92;1.45;;;25.10;99.90;;;;;;5014698;28;20041;-76
2022/07/24 10:10:51;;;;;;;2.33;1.48;;;25.40;99.90;;;;;;5014790;28;20104;-76
2022/07/24 10:13:17;;;;;;;2.08;1.30;;;25.40;99.90;;;;;;4998379;28;20447;-75
2022/07/24 10:16:13;;;;;;;2.60;1.30;;;25.50;99.90;;;;;;5015008;28;20473;-76
2022/07/24 10:19:00;;;;;;;1.95;1.67;;;25.50;99.90;;;;;;4998300;28;20136;-76
2022/07/24 10:21:27;;;;;;;1.77;1.30;;;25.60;99.90;;;;;;4998371;28;20132;-76
2022/07/24 10:24:07;;;;;;;3.97;1.50;;;25.60;99.90;;;;;;5014635;28;20051;-77
2022/07/24 10:26:48;;;;;;;2.38;1.55;;;25.60;99.90;;;;;;4998620;28;20393;-76
2022/07/24 10:29:21;;;;;;;2.58;1.60;;;25.60;99.90;;;;;;5014895;28;20389;-76
2022/07/24 10:31:51;;;;;;;2.72;1.40;;;25.60;99.90;;;;;;4998689;28;20528;-76
2022/07/24 10:34:59;;;;;;;2.30;1.45;;;25.70;99.90;;;;;;4998364;28;20041;-75
2022/07/24 10:38:06;;;;;;;2.10;1.35;;;25.70;99.90;;;;;;4987606;28;20107;-76
2022/07/24 10:40:35;;;;;;;2.30;1.42;;;25.80;99.90;;;;;;5014763;28;20413;-76
2022/07/24 10:43:10;;;;;;;2.45;1.67;;;25.80;99.90;;;;;;4998705;28;20052;-76
2022/07/24 10:45:37;;;;;;;2.25;1.60;;;25.80;99.90;;;;;;5018330;28;20041;-74
2022/07/24 10:48:23;;;;;;;2.70;1.58;;;25.70;99.90;;;;;;5018130;28;20050;-76
2022/07/24 10:51:07;;;;;;;2.28;1.52;;;25.80;99.90;;;;;;4988788;28;20049;-76
2022/07/24 10:53:39;;;;;;;2.75;1.40;;;25.80;99.90;;;;;;5018076;28;20037;-76
2022/07/24 10:56:18;;;;;;;1.88;1.45;;;25.70;99.90;;;;;;5001742;28;20052;-75
2022/07/24 10:59:11;;;;;;;1.90;1.35;;;25.80;99.90;;;;;;5002094;28;20048;-76
2022/07/24 11:01:50;;;;;;;3.88;1.20;;;25.80;99.90;;;;;;5015164;28;20401;-76
2022/07/24 11:04:19;;;;;;;1.95;1.17;;;25.90;99.90;;;;;;5017803;28;20042;-77
2022/07/24 11:06:48;;;;;;;1.52;1.38;;;26.20;99.90;;;;;;5018039;28;20049;-77
2022/07/24 11:09:16;;;;;;;2.33;1.42;;;26.50;99.90;;;;;;5001483;28;20045;-75
2022/07/24 11:12:05;;;;;;;2.63;1.42;;;26.60;99.90;;;;;;5017902;28;20048;-77
2022/07/24 11:14:36;;;;;;;1.98;1.38;;;26.60;99.90;;;;;;5018226;28;20041;-76
2022/07/24 11:17:41;;;;;;;2.40;1.58;;;26.50;99.60;;;;;;5019445;28;20045;-76
2022/07/24 11:20:18;;;;;;;2.13;1.20;;;26.40;99.90;;;;;;5001250;28;20061;-76
2022/07/24 11:22:53;;;;;;;2.50;1.40;;;26.20;98.20;;;;;;5001263;28;20052;-77
2022/07/24 11:25:22;;;;;;;1.40;1.20;;;26.10;98.10;;;;;;5017559;28;20060;-77
2022/07/24 11:27:52;;;;;;;3.60;1.33;;;26.10;98.10;;;;;;5017506;28;20390;-77
2022/07/24 11:30:20;;;;;;;1.83;1.20;;;26.00;98.70;;;;;;5017493;28;20172;-74
2022/07/24 11:32:46;;;;;;;2.15;1.33;;;26.00;99.80;;;;;;5001035;28;20056;-75
2022/07/24 11:35:12;;;;;;;3.47;1.65;;;26.10;99.50;;;;;;5001030;28;20041;-76
2022/07/24 11:37:39;;;;;;;2.30;1.50;;;26.10;99.20;;;;;;5001362;28;20042;-76
2022/07/24 11:40:07;;;;;;;2.22;1.50;;;26.30;98.40;;;;;;5017302;28;20049;-76
2022/07/24 11:42:34;;;;;;;3.30;1.30;;;26.30;97.90;;;;;;5017126;28;20049;-76
2022/07/24 11:45:00;;;;;;;2.40;1.20;;;26.30;97.70;;;;;;5001071;28;20126;-76
2022/07/24 11:47:29;;;;;;;1.48;1.27;;;26.30;98.20;;;;;;5017443;28;20033;-76
2022/07/24 11:50:04;;;;;;;3.00;1.50;;;26.40;99.40;;;;;;5000596;28;20030;-76
2022/07/24 11:52:37;;;;;;;2.33;1.40;;;26.50;98.80;;;;;;5016859;28;20045;-76
2022/07/24 11:55:14;;;;;;;2.50;1.50;;;26.50;98.70;;;;;;5016179;28;20059;-76
2022/07/24 11:57:42;;;;;;;3.88;1.60;;;26.50;98.40;;;;;;5017268;28;20049;-76
2022/07/24 12:00:14;;;;;;;2.42;1.27;;;26.60;99.20;;;;;;5000501;28;20045;-76
2022/07/24 12:02:51;;;;;;;3.45;1.40;;;26.70;97.90;;;;;;5017046;28;20084;-76
2022/07/24 12:05:28;;;;;;;2.78;1.20;;;26.70;96.50;;;;;;5017030;28;20037;-76
2022/07/24 12:07:56;;;;;;;2.30;1.30;;;26.60;95.20;;;;;;5016697;28;20041;-76
2022/07/24 12:10:23;;;;;;;1.75;1.33;;;26.60;96.30;;;;;;5016462;28;20053;-76
2022/07/24 12:12:51;;;;;;;1.80;1.30;;;26.60;96.00;;;;;;5016503;28;20041;-76
2022/07/24 12:15:17;;;;;;;2.90;1.83;;;26.70;96.50;;;;;;5016375;28;20076;-75
2022/07/24 12:17:55;;;;;;;2.22;1.33;;;26.70;96.10;;;;;;5016547;28;20156;-75
2022/07/24 12:20:22;;;;;;;1.77;1.38;;;26.80;94.40;;;;;;5000139;28;20064;-76
2022/07/24 12:22:48;;;;;;;1.85;1.23;;;26.80;95.90;;;;;;5016417;28;20049;-75
2022/07/24 12:25:14;;;;;;;2.33;1.30;;;26.80;96.50;;;;;;4999916;28;20042;-76
2022/07/24 12:27:42;;;;;;;1.58;1.25;;;26.90;96.40;;;;;;4999907;28;20041;-76
2022/07/24 12:30:29;;;;;;;2.78;1.23;;;26.90;96.80;;;;;;5016188;28;20068;-76
2022/07/24 12:33:07;;;;;;;2.03;1.27;;;27.20;95.50;;;;;;4999603;28;20460;-76
2022/07/24 12:36:08;;;;;;;2.17;1.50;;;27.00;96.40;;;;;;4999672;28;20136;-76
2022/07/24 12:38:36;;;;;;;3.80;1.50;;;27.00;97.40;;;;;;5015976;28;20041;-76
2022/07/24 12:41:10;;;;;;;1.75;1.08;;;27.10;97.40;;;;;;5016093;28;20049;-76
2022/07/24 12:44:02;;;;;;;3.38;1.27;;;27.20;96.00;;;;;;5016050;28;20077;-76
2022/07/24 12:46:41;;;;;;;2.33;1.20;;;27.30;95.40;;;;;;5016165;28;20433;-76
2022/07/24 12:49:12;;;;;;;2.10;1.27;;;27.40;95.10;;;;;;5016186;28;20500;-75
2022/07/24 12:52:00;;;;;;;1.90;1.33;;;27.40;95.10;;;;;;5015925;28;20042;-76
2022/07/24 12:54:33;;;;;;;1.80;1.27;;;27.50;94.10;;;;;;5015674;28;20042;-76